Latest Weather Observations for Maryborough

IDQ60801

Issued at 5:02 pm EST Thursday 23 February 2017 (issued every 30 minutes, with the page automatically refreshed every 10 minutes)

About weather observations | Map of weather stations | Latest weather observations for QLD | Other Formats
Station Details ID: 040126 Name: MARYBOROUGH Lat: -25.51 Lon: 152.72 Height: 8.98 m
Data from the previous 72 hours. | See also: Recent months at Maryborough
Date/Time
EST
Temp
°C
App
Temp
°C
Dew
Point
°C
Rel
Hum
%
Delta-T
°C
Wind Press
QNH
hPa
Press
MSL
hPa
Rain since
9am
mm
Dir  Spd
km/h
Gust
km/h
Spd
kts
Gust
kts
23/05:00pm 27.8 25.4 17.3 52 6.6 ESE 26 37 14 20 1015.8 - 0.0
23/04:30pm 29.0 26.4 16.9 48 7.6 ESE 26 39 14 21 1015.5 - 0.0
23/04:00pm 29.3 25.9 15.8 44 8.3 ESE 28 44 15 24 1015.6 - 0.0
23/03:42pm 30.1 26.7 15.8 42 8.9 ESE 28 48 15 26 1015.4 - 0.0
23/03:30pm 30.0 26.4 15.3 41 9.0 ESE 28 44 15 24 1015.4 - 0.0
23/03:20pm 31.0 27.6 15.8 40 9.4 ESE 28 50 15 27 1015.4 - 0.0
23/03:00pm 31.9 29.0 15.0 36 10.4 ESE 24 39 13 21 1015.6 1015.5 0.0
23/02:30pm 32.0 29.3 15.5 37 10.2 ESE 24 35 13 19 1015.6 - 0.0
23/02:00pm 31.6 29.3 14.7 36 10.4 ESE 20 35 11 19 1015.8 - 0.0
23/01:30pm 32.4 29.5 15.0 35 10.7 ESE 24 39 13 21 1016.1 - 0.0
23/01:00pm 31.2 28.2 14.8 37 10.0 ESE 24 41 13 22 1016.4 - 0.0
23/12:30pm 30.3 27.2 14.4 38 9.6 ESE 24 35 13 19 1016.6 - 0.0
23/12:00pm 30.3 27.8 15.2 40 9.3 ESE 22 37 12 20 1016.9 1016.8 0.0
23/11:30am 31.2 27.7 14.4 36 10.2 ESE 26 39 14 21 1017.3 - 0.0
23/11:00am 29.4 25.8 13.2 37 9.6 SE 24 39 13 21 1017.5 - 0.0
23/10:30am 30.5 27.9 15.8 41 9.1 SE 24 33 13 18 1017.8 - 0.0
23/10:00am 28.4 25.4 16.7 49 7.3 SSE 28 41 15 22 1018.0 - 0.0
23/09:30am 29.7 27.3 16.5 45 8.2 ESE 24 39 13 21 1017.9 - 0.0
23/09:00am 27.9 25.7 16.8 50 6.9 SSE 24 35 13 19 1018.1 1018.0 0.0
23/08:30am 27.3 24.3 16.9 53 6.5 SSE 28 37 15 20 1017.9 - 0.0
23/08:00am 26.1 24.6 16.4 55 6.0 S 19 28 10 15 1017.7 - 0.0
23/07:30am 24.1 22.9 16.1 61 4.9 S 17 20 9 11 1017.7 - 0.0
23/07:00am 22.8 22.5 16.4 67 3.9 S 13 17 7 9 1017.5 - 0.0
23/06:30am 22.0 21.6 16.3 70 3.5 S 13 19 7 10 1017.3 - 0.0
23/06:00am 21.2 20.8 16.2 73 3.0 S 13 17 7 9 1017.2 1017.1 0.0
23/05:30am 20.8 20.3 15.8 73 3.0 S 13 15 7 8 1016.8 - 0.0
23/05:00am 21.3 20.4 15.8 71 3.3 S 15 19 8 10 1016.5 - 0.0
23/04:30am 21.4 20.5 15.9 71 3.3 S 15 19 8 10 1016.4 - 0.0
23/04:00am 21.2 20.8 16.2 73 3.0 S 13 17 7 9 1016.5 - 0.0
23/03:30am 21.5 20.7 16.0 71 3.3 S 15 19 8 10 1016.4 - 0.0
23/03:00am 21.8 21.4 16.1 70 3.4 S 13 17 7 9 1016.5 1016.4 0.0
23/02:30am 21.7 21.2 16.0 70 3.4 S 13 17 7 9 1016.6 - 0.0
23/02:00am 21.6 21.1 15.9 70 3.4 S 13 17 7 9 1016.8 - 0.0
23/01:30am 22.3 21.8 15.9 67 3.9 S 13 15 7 8 1017.1 - 0.0
23/01:00am 22.9 22.1 16.0 65 4.2 S 15 19 8 10 1017.3 - 0.0
23/12:30am 23.1 22.3 16.2 65 4.2 S 15 19 8 10 1017.5 - 0.0
23/12:00am 23.2 22.3 15.8 63 4.5 S 15 19 8 10 1017.8 1017.7 0.0
 
Date/Time
EST
Temp
°C
App
Temp
°C
Dew
Point
°C
Rel
Hum
%
Delta-T
°C
Wind Press
QNH
hPa
Press
MSL
hPa
Rain since
9am
mm
Dir  Spd
km/h
Gust
km/h
Spd
kts
Gust
kts
22/11:30pm 23.9 22.7 16.2 62 4.7 SSE 17 20 9 11 1017.9 - 0.0
22/11:00pm 24.1 23.0 16.4 62 4.7 SSE 17 20 9 11 1018.1 - 0.0
22/10:30pm 24.2 23.2 16.5 62 4.7 SE 17 22 9 12 1018.3 - 0.0
22/10:00pm 24.4 23.0 16.6 61 4.8 SE 19 24 10 13 1018.2 - 0.0
22/09:30pm 24.5 23.2 16.7 61 4.8 SE 19 24 10 13 1018.1 - 0.0
22/09:00pm 24.5 23.7 17.0 63 4.6 SE 17 20 9 11 1018.0 1017.9 0.0
22/08:30pm 24.5 23.5 16.7 61 4.8 SE 17 22 9 12 1017.8 - 0.0
22/08:00pm 25.0 23.5 16.7 60 5.1 SE 20 30 11 16 1017.6 - 0.0
22/07:30pm 25.2 22.8 16.3 57 5.5 SE 24 32 13 17 1017.4 - 0.0
22/07:00pm 25.3 22.8 16.2 57 5.6 SE 24 32 13 17 1017.2 - 0.0
22/06:30pm 25.6 23.0 15.9 55 5.9 SE 24 32 13 17 1017.0 - 0.0
22/06:00pm 26.1 23.1 16.9 57 5.7 SE 28 43 15 23 1016.8 1016.7 0.0
22/05:30pm 26.4 23.9 17.2 57 5.7 ESE 26 35 14 19 1016.5 - 0.0
22/05:00pm 27.1 24.2 17.0 54 6.3 ESE 28 41 15 22 1016.1 - 0.0
22/04:30pm 27.5 24.4 16.5 51 6.8 ESE 28 37 15 20 1015.7 - 0.0
22/04:00pm 27.9 24.0 16.5 50 7.1 ESE 32 43 17 23 1015.7 - 0.0
22/03:30pm 27.7 24.4 16.0 49 7.2 ESE 28 43 15 23 1015.6 - 0.0
22/03:00pm 28.6 24.7 15.5 45 8.0 ESE 30 48 16 26 1015.7 1015.6 0.0
22/02:30pm 30.4 25.9 16.4 43 8.8 ESE 35 46 19 25 1015.7 - 0.0
22/02:00pm 30.8 26.0 15.6 39 9.4 ESE 35 48 19 26 1015.9 - 0.0
22/01:30pm 29.7 26.0 16.1 43 8.4 ESE 30 41 16 22 1016.1 - 0.0
22/01:18pm 29.7 26.5 17.2 47 7.9 ESE 30 48 16 26 1016.1 - 0.0
22/01:00pm 30.5 25.8 15.8 41 9.1 SE 35 50 19 27 1016.5 - 0.0
22/12:30pm 29.7 26.6 16.5 45 8.2 ESE 28 46 15 25 1016.6 - 0.0
22/12:27pm 29.7 26.7 16.8 45 8.1 ESE 28 46 15 25 1016.6 - 0.0
22/12:00pm 29.5 25.8 17.0 47 7.9 SE 32 46 17 25 1017.0 1016.9 0.0
22/11:44am 31.3 28.2 17.6 44 8.7 SE 30 52 16 28 1017.3 - 0.0
22/11:30am 30.3 26.9 16.7 44 8.5 SE 30 39 16 21 1017.5 - 0.0
22/11:00am 29.6 25.9 16.1 44 8.4 ESE 30 46 16 25 1017.7 - 0.0
22/10:30am 31.0 26.9 15.0 38 9.8 SE 30 39 16 21 1017.8 - 0.0
22/10:00am 30.5 25.9 15.0 39 9.5 SE 33 46 18 25 1018.0 - 0.0
22/09:30am 29.3 25.8 16.5 46 8.0 SE 30 41 16 22 1018.1 - 0.0
22/09:00am 28.6 25.6 17.8 52 6.8 SE 30 39 16 21 1018.3 1018.2 0.0
22/08:30am 28.0 25.3 17.5 52 6.6 SE 28 39 15 21 1017.9 - 0.0
22/08:00am 27.6 28.0 19.1 59 5.5 S 15 24 8 13 1017.8 - 0.0
22/07:30am 25.1 24.7 18.1 65 4.4 S 17 20 9 11 1017.8 - 0.0
22/07:00am 24.7 24.7 18.2 67 4.1 S 15 19 8 10 1017.8 - 0.0
22/06:30am 23.0 23.5 18.3 75 2.9 S 13 17 7 9 1017.6 - 0.0
22/06:00am 21.9 23.0 17.9 78 2.5 SSW 9 13 5 7 1017.0 1016.9 0.0
22/05:30am 21.4 22.7 17.6 79 2.3 SSE 7 11 4 6 1016.6 - 0.0
22/05:00am 21.8 22.4 17.6 77 2.6 S 11 13 6 7 1016.5 - 0.0
22/04:30am 22.6 23.0 18.2 76 2.8 S 13 17 7 9 1016.4 - 0.0
22/04:00am 22.6 22.9 17.9 75 2.9 S 13 17 7 9 1016.2 - 0.0
22/03:30am 22.9 23.2 17.8 73 3.2 SSE 13 17 7 9 1015.8 - 0.0
22/03:00am 23.5 23.9 18.2 72 3.3 SSE 13 17 7 9 1016.1 1016.0 0.0
22/02:30am 23.5 23.9 18.2 72 3.3 S 13 19 7 10 1016.0 - 0.0
22/02:00am 23.5 24.6 18.8 75 3.0 SSE 11 15 6 8 1016.0 - 0.0
22/01:30am 23.3 24.2 18.4 74 3.1 S 11 13 6 7 1016.4 - 0.0
22/01:00am 24.5 24.9 19.1 72 3.4 SE 15 22 8 12 1016.4 - 0.0
22/12:30am 24.7 25.0 19.5 73 3.3 SE 17 22 9 12 1016.6 - 0.0
22/12:00am 25.1 25.9 19.9 73 3.4 ESE 15 24 8 13 1016.5 1016.4 0.0
 
Date/Time
EST
Temp
°C
App
Temp
°C
Dew
Point
°C
Rel
Hum
%
Delta-T
°C
Wind Press
QNH
hPa
Press
MSL
hPa
Rain since
9am
mm
Dir  Spd
km/h
Gust
km/h
Spd
kts
Gust
kts
21/11:30pm 25.1 25.5 19.9 73 3.4 ESE 17 22 9 12 1016.7 - 0.0
21/11:00pm 25.7 25.4 20.3 72 3.5 SE 22 32 12 17 1016.7 - 0.0
21/10:30pm 25.9 25.4 20.0 70 3.8 ESE 22 30 12 16 1016.7 - 0.0
21/10:00pm 25.6 26.3 20.4 73 3.4 ESE 17 26 9 14 1016.8 - 0.0
21/09:30pm 25.4 25.6 20.2 73 3.4 SE 19 26 10 14 1016.8 - 0.0
21/09:00pm 25.8 25.8 20.1 71 3.7 ESE 20 32 11 17 1016.8 1016.7 0.0
21/08:30pm 25.7 25.8 20.3 72 3.5 SE 20 28 11 15 1016.7 - 0.0
21/08:00pm 25.8 25.8 20.1 71 3.7 SE 20 30 11 16 1016.4 - 0.0
21/07:30pm 26.0 25.3 20.3 71 3.7 SE 24 33 13 18 1016.2 - 0.0
21/07:00pm 26.3 26.1 19.7 67 4.3 SE 20 33 11 18 1016.0 - 0.0
21/06:30pm 26.6 25.0 19.2 64 4.8 SE 26 35 14 19 1015.6 - 0.0
21/06:00pm 27.1 25.0 18.9 61 5.3 SE 28 37 15 20 1015.3 1015.2 0.0
21/05:30pm 28.2 26.0 18.6 56 6.2 ESE 28 41 15 22 1015.0 - 0.0
21/05:00pm 29.0 26.2 19.0 54 6.5 ESE 32 43 17 23 1014.6 - 0.0
21/04:31pm 29.5 27.1 19.2 54 6.7 ESE 30 48 16 26 1014.3 - 0.0
21/04:30pm 29.4 26.6 19.1 54 6.7 ESE 32 48 17 26 1014.3 - 0.0
21/04:06pm 29.7 27.3 18.2 50 7.4 ESE 28 46 15 25 1014.0 - 0.0
21/04:00pm 30.2 27.1 18.3 49 7.6 ESE 32 46 17 25 1014.1 - 0.0
21/03:30pm 31.2 27.3 16.4 41 9.3 ESE 32 44 17 24 1013.9 - 0.0
21/03:00pm 32.7 29.6 16.5 37 10.2 ESE 28 41 15 22 1013.9 1013.8 0.0
21/02:30pm 32.2 29.7 16.1 38 10.1 ESE 24 37 13 20 1013.9 - 0.0
21/02:00pm 33.3 30.8 16.2 36 10.8 ESE 24 35 13 19 1014.1 - 0.0
21/01:30pm 32.1 29.5 16.8 40 9.7 ESE 26 37 14 20 1014.2 - 0.0
21/01:10pm 33.4 30.0 15.8 34 11.0 ESE 28 46 15 25 1014.2 - 0.0
21/01:00pm 33.4 30.2 16.3 36 10.8 SE 28 41 15 22 1014.2 - 0.0
21/12:30pm 32.1 29.8 15.6 37 10.3 E 22 39 12 21 1014.6 - 0.0
21/12:00pm 33.3 31.3 17.5 39 10.1 ESE 24 39 13 21 1014.9 1014.8 0.0
21/11:30am 33.0 31.1 16.8 38 10.3 ESE 22 35 12 19 1015.2 - 0.0
21/11:00am 33.9 33.3 18.8 41 9.9 ESE 20 32 11 17 1015.4 - 0.0
21/10:30am 31.7 30.2 17.6 43 9.0 E 22 32 12 17 1015.7 - 0.0
21/10:00am 31.3 29.7 18.3 46 8.4 SE 24 33 13 18 1015.9 - 0.0
21/09:30am 30.9 31.0 19.9 52 7.2 SE 19 26 10 14 1015.9 - 0.0
21/09:00am 29.3 28.8 19.9 57 6.2 SE 22 32 12 17 1016.0 1015.9 0.0
21/08:30am 29.7 29.8 21.1 60 5.7 SSE 22 35 12 19 1016.0 - 0.0
21/08:00am 28.7 29.4 21.2 64 5.0 SSE 19 26 10 14 1015.9 - 0.0
21/07:30am 27.7 28.6 20.8 66 4.6 S 17 24 9 13 1015.6 - 0.0
21/07:00am 26.4 27.7 20.9 72 3.6 S 15 20 8 11 1015.2 - 0.0
21/06:30am 25.2 26.9 20.2 74 3.3 SE 11 15 6 8 1014.8 - 0.0
21/06:00am 24.8 26.1 19.2 71 3.6 SE 11 15 6 8 1014.4 1014.3 0.0
21/05:30am 24.3 24.0 19.1 73 3.3 SSE 19 26 10 14 1014.0 - 0.0
21/05:00am 24.1 23.3 18.1 69 3.8 SE 19 24 10 13 1013.8 - 0.0
21/04:30am 23.0 22.5 18.7 77 2.7 SE 19 24 10 13 1013.3 - 0.0
21/04:00am 23.4 24.6 19.8 80 2.3 SSE 13 17 7 9 1013.0 - 0.0
21/03:30am 23.4 25.1 20.9 86 1.6 SSE 13 17 7 9 1012.9 - 0.0
21/03:00am 22.8 24.5 20.1 85 1.7 S 11 15 6 8 1012.7 1012.6 0.0
21/02:30am 23.1 25.2 20.1 83 1.9 S 9 13 5 7 1012.5 - 0.0
21/02:00am 23.3 24.4 20.4 84 1.9 S 15 19 8 10 1012.8 - 0.0
21/01:30am 22.9 24.2 20.1 84 1.8 S 13 15 7 8 1013.1 - 0.0
21/01:00am 23.1 24.4 20.1 83 1.9 S 13 17 7 9 1013.2 - 0.0
21/12:30am 23.0 24.2 19.8 82 2.1 S 13 15 7 8 1013.5 - 0.0
21/12:00am 23.4 24.2 19.8 80 2.3 S 15 17 8 9 1013.7 1013.6 0.0
 
Date/Time
EST
Temp
°C
App
Temp
°C
Dew
Point
°C
Rel
Hum
%
Delta-T
°C
Wind Press
QNH
hPa
Press
MSL
hPa
Rain since
9am
mm
Dir  Spd
km/h
Gust
km/h
Spd
kts
Gust
kts
20/11:30pm 23.9 25.3 20.4 81 2.3 S 13 19 7 10 1013.8 - 0.0
20/11:00pm 23.0 24.7 20.1 84 1.9 S 11 13 6 7 1013.6 - 0.0
20/10:30pm 23.4 25.0 20.0 81 2.2 S 11 13 6 7 1013.6 - 0.0
20/10:00pm 23.5 25.3 20.4 83 2.0 S 11 11 6 6 1013.8 - 0.0
20/09:30pm 23.7 26.0 20.6 83 2.0 S 9 9 5 5 1013.6 - 0.0
20/09:00pm 23.5 25.8 19.8 80 2.4 SSE 7 9 4 5 1013.3 1013.2 0.0
20/08:30pm 23.5 25.5 19.2 77 2.7 SSE 7 9 4 5 1012.9 - 0.0
20/08:00pm 25.5 28.1 20.1 72 3.5 E 6 7 3 4 1012.5 - 0.0
20/07:30pm 26.1 28.3 19.7 68 4.1 E 7 11 4 6 1011.9 - 0.0
20/07:00pm 26.5 27.8 18.4 61 5.2 E 9 13 5 7 1011.3 - 0.0
20/06:30pm 27.4 28.0 17.6 55 6.2 E 11 17 6 9 1010.8 - 0.0
20/06:00pm 28.4 29.2 18.2 54 6.5 E 11 20 6 11 1010.2 1010.1 0.0
20/05:30pm 29.4 29.4 18.2 51 7.2 E 15 24 8 13 1009.7 - 0.0

Other Formats:

Comma delimited format used in spreadsheet applications
http://www.bom.gov.au/fwo/IDQ60801/IDQ60801.94567.axf

JavaScript Object Notation format (JSON) in row-major order
http://www.bom.gov.au/fwo/IDQ60801/IDQ60801.94567.json